createdAt,value
2022-10-05T00:01:22.497Z,17.78
2022-10-05T00:03:49.257Z,17.68
2022-10-05T00:06:15.801Z,17.67
2022-10-05T00:08:42.944Z,16.75
2022-10-05T00:11:13.266Z,17.88
2022-10-05T00:13:40.108Z,17.81
2022-10-05T00:16:20.411Z,17.63
2022-10-05T00:18:50.103Z,17.57
2022-10-05T00:21:21.151Z,17.62
2022-10-05T00:23:47.986Z,16.94
2022-10-05T00:26:23.578Z,17.84
2022-10-05T00:28:50.577Z,16.47
2022-10-05T00:31:20.578Z,17.58
2022-10-05T00:33:48.003Z,17.22
2022-10-05T00:36:14.906Z,17.70
2022-10-05T00:38:42.564Z,17.64
2022-10-05T00:41:21.763Z,17.43
2022-10-05T00:44:03.780Z,17.42
2022-10-05T00:47:03.515Z,16.67
2022-10-05T00:49:59.091Z,17.41
2022-10-05T00:52:46.043Z,17.50
2022-10-05T00:55:44.939Z,17.18
2022-10-05T00:58:29.581Z,17.29
2022-10-05T01:01:16.670Z,17.28
2022-10-05T01:04:09.425Z,17.50
2022-10-05T01:06:41.953Z,17.55
2022-10-05T01:09:45.644Z,17.34
2022-10-05T01:12:41.191Z,17.45
2022-10-05T01:15:13.491Z,17.62
2022-10-05T01:18:17.308Z,17.59
2022-10-05T01:21:08.243Z,17.45
2022-10-05T01:24:02.934Z,17.59
2022-10-05T01:26:47.547Z,17.55
2022-10-05T01:29:25.199Z,17.59
2022-10-05T01:32:12.666Z,16.89
2022-10-05T01:34:52.804Z,17.51
2022-10-05T01:37:19.116Z,17.48
2022-10-05T01:39:59.455Z,17.55
2022-10-05T01:43:05.107Z,16.75
2022-10-05T01:45:47.612Z,17.60
2022-10-05T01:48:32.735Z,17.63
2022-10-05T01:51:25.704Z,17.54
2022-10-05T01:54:10.051Z,17.25
2022-10-05T01:56:46.850Z,17.45
2022-10-05T01:59:48.765Z,17.18
2022-10-05T02:02:18.852Z,17.71
2022-10-05T02:05:02.782Z,17.60
2022-10-05T02:07:43.646Z,17.44
2022-10-05T02:10:26.066Z,17.52
2022-10-05T02:12:59.775Z,17.31
2022-10-05T02:15:40.540Z,17.29
2022-10-05T02:18:13.374Z,17.61
2022-10-05T02:20:43.375Z,17.41
2022-10-05T02:23:17.119Z,17.48
2022-10-05T02:25:46.773Z,17.71
2022-10-05T02:28:22.447Z,17.74
2022-10-05T02:30:58.902Z,17.57
2022-10-05T02:33:33.095Z,17.49
2022-10-05T02:36:05.352Z,17.70
2022-10-05T02:38:47.182Z,17.69
2022-10-05T02:41:31.799Z,17.82
2022-10-05T02:44:28.289Z,17.79
2022-10-05T02:47:12.505Z,17.82
2022-10-05T02:50:00.515Z,17.67
2022-10-05T02:52:43.559Z,17.46
2022-10-05T02:55:19.482Z,17.76
2022-10-05T02:58:04.614Z,17.85
2022-10-05T03:00:39.404Z,16.99
2022-10-05T03:03:27.959Z,17.46
2022-10-05T03:06:02.604Z,17.55
2022-10-05T03:08:38.269Z,17.64
2022-10-05T03:11:25.428Z,17.64
2022-10-05T03:14:10.422Z,17.75
2022-10-05T03:16:52.038Z,17.82
2022-10-05T03:19:48.813Z,17.79
2022-10-05T03:22:28.896Z,17.77
2022-10-05T03:25:24.621Z,17.80
2022-10-05T03:28:18.922Z,17.15
2022-10-05T03:31:06.356Z,17.68
2022-10-05T03:33:32.687Z,17.77
2022-10-05T03:36:12.545Z,17.60
2022-10-05T03:38:59.264Z,17.52
2022-10-05T03:41:48.302Z,17.57
2022-10-05T03:44:23.261Z,17.63
2022-10-05T03:47:16.043Z,17.40
2022-10-05T03:50:17.312Z,17.61
2022-10-05T03:53:06.294Z,17.45
2022-10-05T03:55:52.129Z,17.52
2022-10-05T03:58:25.333Z,17.47
2022-10-05T04:00:56.081Z,17.36
2022-10-05T04:03:30.255Z,17.56
2022-10-05T04:06:02.968Z,16.87
2022-10-05T04:08:48.338Z,17.51
2022-10-05T04:11:21.296Z,17.44
2022-10-05T04:13:57.373Z,17.39
2022-10-05T04:16:31.546Z,17.26
2022-10-05T04:19:21.252Z,17.34
2022-10-05T04:22:09.823Z,17.45
2022-10-05T04:24:58.539Z,17.44
2022-10-05T04:27:39.687Z,17.36
2022-10-05T04:30:12.350Z,17.26
2022-10-05T04:32:48.288Z,17.19
2022-10-05T04:35:40.972Z,17.26
2022-10-05T04:38:37.452Z,17.26
2022-10-05T04:41:31.658Z,17.23
2022-10-05T04:44:25.571Z,17.20
2022-10-05T04:47:16.919Z,17.08
2022-10-05T04:49:56.623Z,17.19
2022-10-05T04:52:43.918Z,17.17
2022-10-05T04:55:22.598Z,17.17
2022-10-05T04:58:10.296Z,17.27
2022-10-05T05:00:49.363Z,17.26
2022-10-05T05:03:51.117Z,17.19
2022-10-05T05:06:38.976Z,17.28
2022-10-05T05:09:17.441Z,17.28
2022-10-05T05:12:05.720Z,17.34
2022-10-05T05:14:57.683Z,17.31
2022-10-05T05:17:33.251Z,17.36
2022-10-05T05:20:18.865Z,17.37
2022-10-05T05:23:03.954Z,17.40
2022-10-05T05:25:35.839Z,17.44
2022-10-05T05:28:23.539Z,17.51
2022-10-05T05:31:05.467Z,17.42
2022-10-05T05:33:40.981Z,17.48
2022-10-05T05:36:33.856Z,17.61
2022-10-05T05:39:22.009Z,17.58
2022-10-05T05:41:54.345Z,17.55
2022-10-05T05:44:25.981Z,17.48
2022-10-05T05:47:13.913Z,17.63
2022-10-05T05:50:08.670Z,17.61
2022-10-05T05:52:41.291Z,17.61
2022-10-05T05:55:19.005Z,17.52
2022-10-05T05:58:04.182Z,17.56
2022-10-05T06:00:37.523Z,17.67
2022-10-05T06:03:14.736Z,17.64
2022-10-05T06:05:46.638Z,17.62
2022-10-05T06:08:49.702Z,17.73
2022-10-05T06:11:31.715Z,17.70
2022-10-05T06:14:04.729Z,17.40
2022-10-05T06:16:37.006Z,17.72
2022-10-05T06:19:16.640Z,17.78
2022-10-05T06:21:44.785Z,17.06
2022-10-05T06:24:15.223Z,17.63
2022-10-05T06:26:59.636Z,17.67
2022-10-05T06:29:49.193Z,17.75
2022-10-05T06:32:34.832Z,17.18
2022-10-05T06:35:11.614Z,17.89
2022-10-05T06:37:53.191Z,17.87
2022-10-05T06:40:34.239Z,17.91
2022-10-05T06:43:12.447Z,17.90
2022-10-05T06:46:04.048Z,17.89
2022-10-05T06:48:51.405Z,17.87
2022-10-05T06:51:43.235Z,17.93
2022-10-05T06:54:17.826Z,17.18
2022-10-05T06:57:15.005Z,17.82
2022-10-05T06:59:53.313Z,17.92
2022-10-05T07:02:31.126Z,17.70
2022-10-05T07:05:27.471Z,18.00
2022-10-05T07:07:58.021Z,18.02
2022-10-05T07:11:04.566Z,17.29
2022-10-05T07:14:07.851Z,18.03
2022-10-05T07:16:49.416Z,18.07
2022-10-05T07:19:32.513Z,17.98
2022-10-05T07:22:27.399Z,18.00
2022-10-05T07:25:08.500Z,18.21
2022-10-05T07:28:02.676Z,17.90
2022-10-05T07:30:33.563Z,17.78
2022-10-05T07:33:24.193Z,17.56
2022-10-05T07:36:18.661Z,18.32
2022-10-05T07:38:58.737Z,18.24
2022-10-05T07:41:31.252Z,18.44
2022-10-05T07:44:12.934Z,18.38
2022-10-05T07:47:02.089Z,18.36
2022-10-05T07:49:57.951Z,18.43
2022-10-05T07:52:38.003Z,18.00
2022-10-05T07:55:19.090Z,18.50
2022-10-05T07:58:02.534Z,18.53
2022-10-05T08:00:48.814Z,18.41
2022-10-05T08:03:40.774Z,18.58
2022-10-05T08:06:16.241Z,18.35
2022-10-05T08:08:57.344Z,18.42
2022-10-05T08:11:50.115Z,18.66
2022-10-05T08:14:25.485Z,18.68
2022-10-05T08:16:55.635Z,18.74
2022-10-05T08:19:32.899Z,18.63
2022-10-05T08:22:06.258Z,18.71
2022-10-05T08:24:41.826Z,18.75
2022-10-05T08:27:08.079Z,18.78
2022-10-05T08:29:41.185Z,18.73
2022-10-05T08:32:30.435Z,18.88
2022-10-05T08:35:21.319Z,18.86
2022-10-05T08:37:49.289Z,18.78
2022-10-05T08:40:18.638Z,18.89
2022-10-05T08:43:09.980Z,19.01
2022-10-05T08:45:55.185Z,19.01
2022-10-05T08:48:24.743Z,18.82
2022-10-05T08:51:26.703Z,18.92
2022-10-05T08:54:02.013Z,19.05
2022-10-05T08:56:37.370Z,19.03
2022-10-05T08:59:27.736Z,19.18
2022-10-05T09:02:19.073Z,19.10
2022-10-05T09:05:27.754Z,19.08
2022-10-05T09:08:20.643Z,19.15
2022-10-05T09:11:11.504Z,19.40
2022-10-05T09:13:47.090Z,19.42
2022-10-05T09:16:58.538Z,19.43
2022-10-05T09:19:43.738Z,19.39
2022-10-05T09:22:33.745Z,19.20
2022-10-05T09:25:18.477Z,19.51
2022-10-05T09:28:08.205Z,19.55
2022-10-05T09:31:12.519Z,19.46
2022-10-05T09:33:39.169Z,19.45
2022-10-05T09:36:30.138Z,19.57
2022-10-05T09:39:02.458Z,19.55
2022-10-05T09:41:44.077Z,19.50
2022-10-05T09:47:29.083Z,19.49
2022-10-05T09:50:14.174Z,19.71
2022-10-05T09:53:24.055Z,19.65
2022-10-05T09:56:21.011Z,19.67
2022-10-05T09:58:56.496Z,19.89
2022-10-05T10:01:41.114Z,20.03
2022-10-05T10:04:26.431Z,19.96
2022-10-05T10:07:36.383Z,20.10
2022-10-05T10:10:29.151Z,20.16
2022-10-05T10:13:14.371Z,20.19
2022-10-05T10:15:54.641Z,20.16
2022-10-05T10:18:39.898Z,19.98
2022-10-05T10:21:30.913Z,20.12
2022-10-05T10:24:15.554Z,20.32
2022-10-05T10:26:44.992Z,20.28
2022-10-05T10:29:20.397Z,20.31
2022-10-05T10:32:16.408Z,20.42
2022-10-05T10:35:08.157Z,20.48
2022-10-05T10:37:53.042Z,20.67
2022-10-05T10:40:58.004Z,20.82
2022-10-05T10:43:27.502Z,20.90
2022-10-05T10:46:06.388Z,20.81
2022-10-05T10:48:53.829Z,20.81
2022-10-05T10:51:58.253Z,21.00
2022-10-05T10:54:42.079Z,20.63
2022-10-05T10:57:34.653Z,21.11
2022-10-05T11:00:15.515Z,21.37
2022-10-05T11:03:00.767Z,21.39
2022-10-05T11:05:48.788Z,21.27
2022-10-05T11:08:41.259Z,21.77
2022-10-05T11:11:19.843Z,21.16
2022-10-05T11:14:26.459Z,21.90
2022-10-05T11:17:25.175Z,22.46
2022-10-05T11:20:05.059Z,22.65
2022-10-05T11:22:48.018Z,22.63
2022-10-05T11:25:36.229Z,22.21
2022-10-05T11:28:21.563Z,22.19
2022-10-05T11:31:30.201Z,22.18
2022-10-05T11:34:09.825Z,22.19
2022-10-05T11:37:15.861Z,22.41
2022-10-05T11:39:44.532Z,22.44
2022-10-05T11:42:41.439Z,22.59
2022-10-05T11:45:19.036Z,22.59
2022-10-05T11:48:07.236Z,22.65
2022-10-05T11:50:56.158Z,22.69
2022-10-05T11:53:37.420Z,22.24
2022-10-05T11:56:25.683Z,22.98
2022-10-05T11:59:20.820Z,22.95
2022-10-05T12:02:05.478Z,22.96
2022-10-05T12:04:45.342Z,23.03
2022-10-05T12:07:32.049Z,22.88
2022-10-05T12:10:21.176Z,23.20
2022-10-05T12:13:03.804Z,23.12
2022-10-05T12:15:50.251Z,23.25
2022-10-05T12:18:32.507Z,23.37
2022-10-05T12:21:05.196Z,23.58
2022-10-05T12:23:42.319Z,23.63
2022-10-05T12:26:16.274Z,23.49
2022-10-05T12:29:01.080Z,23.90
2022-10-05T12:31:41.456Z,24.00
2022-10-05T12:34:20.776Z,24.11
2022-10-05T12:37:04.057Z,24.05
2022-10-05T12:39:56.796Z,23.88
2022-10-05T12:42:51.165Z,24.26
2022-10-05T12:45:31.836Z,24.08
2022-10-05T12:48:19.767Z,24.42
2022-10-05T12:50:51.074Z,24.39
2022-10-05T12:53:48.399Z,24.86
2022-10-05T12:56:21.706Z,25.08
2022-10-05T12:58:57.496Z,25.11
2022-10-05T13:02:05.770Z,25.50
2022-10-05T13:04:44.061Z,25.36
2022-10-05T13:07:39.268Z,25.07
2022-10-05T13:10:08.874Z,25.27
2022-10-05T13:12:54.267Z,25.22
2022-10-05T13:15:43.900Z,25.47
2022-10-05T13:18:29.658Z,25.40
2022-10-05T13:21:12.408Z,25.25
2022-10-05T13:24:06.927Z,25.54
2022-10-05T13:26:37.944Z,25.47
2022-10-05T13:29:33.119Z,25.67
2022-10-05T13:32:15.694Z,25.78
2022-10-05T13:34:53.040Z,25.74
2022-10-05T13:37:50.320Z,25.72
2022-10-05T13:40:49.473Z,25.34
2022-10-05T13:43:25.379Z,25.20
2022-10-05T13:45:57.044Z,25.36
2022-10-05T13:48:49.507Z,25.63
2022-10-05T13:51:19.010Z,25.87
2022-10-05T13:53:53.077Z,25.64
2022-10-05T13:56:33.489Z,25.42
2022-10-05T13:59:30.574Z,25.55
2022-10-05T14:02:09.233Z,25.38
2022-10-05T14:04:58.275Z,25.57
2022-10-05T14:07:48.790Z,25.34
2022-10-05T14:10:31.370Z,25.61
2022-10-05T14:12:58.115Z,25.91
2022-10-05T14:15:38.489Z,26.06
2022-10-05T14:18:37.382Z,26.12
2022-10-05T14:21:13.173Z,25.86
2022-10-05T14:23:40.025Z,25.67
2022-10-05T14:26:34.752Z,25.64
2022-10-05T14:29:17.127Z,25.55
2022-10-05T14:32:13.407Z,25.31
2022-10-05T14:34:45.712Z,25.69
2022-10-05T14:37:24.703Z,25.31
2022-10-05T14:39:54.621Z,25.52
2022-10-05T14:42:27.014Z,25.30
2022-10-05T14:45:12.498Z,25.53
2022-10-05T14:47:53.008Z,25.29
2022-10-05T14:50:26.026Z,25.42
2022-10-05T14:53:11.251Z,25.10
2022-10-05T14:56:17.203Z,25.43
2022-10-05T14:59:04.193Z,25.47
2022-10-05T15:01:33.858Z,25.65
2022-10-05T15:04:16.625Z,25.73
2022-10-05T15:06:53.367Z,25.44
2022-10-05T15:09:24.617Z,25.35
2022-10-05T15:11:53.582Z,25.17
2022-10-05T15:14:38.185Z,25.13
2022-10-05T15:17:16.121Z,24.53
2022-10-05T15:19:48.111Z,24.68
2022-10-05T15:22:21.738Z,24.28
2022-10-05T15:25:12.938Z,24.33
2022-10-05T15:28:05.604Z,24.37
2022-10-05T15:30:37.305Z,24.32
2022-10-05T15:33:15.430Z,24.22
2022-10-05T15:35:55.835Z,24.19
2022-10-05T15:38:28.519Z,24.03
2022-10-05T15:41:22.485Z,24.35
2022-10-05T15:44:07.396Z,24.12
2022-10-05T15:46:43.621Z,23.81
2022-10-05T15:49:24.203Z,23.93
2022-10-05T15:52:23.760Z,24.01
2022-10-05T15:55:09.087Z,24.14
2022-10-05T15:57:47.979Z,24.09
2022-10-05T16:00:19.879Z,23.87
2022-10-05T16:02:52.087Z,23.51
2022-10-05T16:05:56.815Z,23.97
2022-10-05T16:08:50.370Z,24.01
2022-10-05T16:11:46.357Z,23.83
2022-10-05T16:14:33.000Z,23.36
2022-10-05T16:17:18.676Z,23.33
2022-10-05T16:20:07.962Z,22.90
2022-10-05T16:22:49.174Z,23.19
2022-10-05T16:25:36.428Z,23.36
2022-10-05T16:28:06.094Z,22.98
2022-10-05T16:31:09.894Z,22.95
2022-10-05T16:34:17.227Z,22.24
2022-10-05T16:36:57.636Z,22.72
2022-10-05T16:39:48.478Z,22.76
2022-10-05T16:42:32.761Z,22.14
2022-10-05T16:45:20.699Z,22.18
2022-10-05T16:48:03.007Z,22.20
2022-10-05T16:50:58.119Z,22.09
2022-10-05T16:53:36.221Z,22.14
2022-10-05T16:56:11.131Z,21.91
2022-10-05T16:58:59.433Z,22.13
2022-10-05T17:01:58.764Z,22.24
2022-10-05T17:05:02.176Z,21.81
2022-10-05T17:07:57.902Z,22.14
2022-10-05T17:10:37.084Z,21.94
2022-10-05T17:13:40.965Z,21.91
2022-10-05T17:16:33.084Z,22.00
2022-10-05T17:19:32.158Z,21.89
2022-10-05T17:22:03.410Z,22.16
2022-10-05T17:24:49.128Z,21.93
2022-10-05T17:27:20.987Z,21.99
2022-10-05T17:29:47.561Z,22.19
2022-10-05T17:32:17.050Z,22.25
2022-10-05T17:35:18.251Z,22.41
2022-10-05T17:38:27.562Z,22.19
2022-10-05T17:41:00.201Z,22.42
2022-10-05T17:43:28.506Z,22.37
2022-10-05T17:46:03.353Z,22.59
2022-10-05T17:48:48.260Z,22.33
2022-10-05T17:51:53.050Z,22.48
2022-10-05T17:54:43.986Z,22.37
2022-10-05T17:57:10.238Z,22.48
2022-10-05T18:00:07.437Z,22.71
2022-10-05T18:02:39.785Z,22.71
2022-10-05T18:05:12.044Z,22.55
2022-10-05T18:07:40.186Z,22.39
2022-10-05T18:10:09.505Z,22.34
2022-10-05T18:12:39.236Z,22.42
2022-10-05T18:15:05.484Z,22.40
2022-10-05T18:18:32.051Z,22.46
2022-10-05T18:21:14.315Z,22.24
2022-10-05T18:23:52.555Z,22.21
2022-10-05T18:26:32.651Z,22.15
2022-10-05T18:29:47.183Z,22.26
2022-10-05T18:32:29.246Z,22.21
2022-10-05T18:35:03.441Z,22.05
2022-10-05T18:37:56.944Z,22.29
2022-10-05T18:40:39.874Z,22.20
2022-10-05T18:43:27.637Z,22.19
2022-10-05T18:46:32.577Z,22.10
2022-10-05T18:49:01.620Z,22.24
2022-10-05T18:51:39.457Z,22.17
2022-10-05T18:54:32.181Z,22.05
2022-10-05T18:57:12.398Z,22.32
2022-10-05T18:59:51.343Z,22.08
2022-10-05T19:02:47.390Z,22.30
2022-10-05T19:05:49.138Z,22.27
2022-10-05T19:08:41.130Z,22.09
2022-10-05T19:11:27.799Z,22.23
2022-10-05T19:14:22.057Z,22.16
2022-10-05T19:17:00.426Z,22.22
2022-10-05T19:19:43.907Z,22.39
2022-10-05T19:22:22.001Z,22.25
2022-10-05T19:25:21.566Z,22.38
2022-10-05T19:28:12.881Z,22.42
2022-10-05T19:30:59.121Z,22.39
2022-10-05T19:34:07.534Z,22.40
2022-10-05T19:37:22.276Z,22.42
2022-10-05T19:40:04.617Z,22.10
2022-10-05T19:42:45.041Z,22.55
2022-10-05T19:45:17.730Z,22.52
2022-10-05T19:48:02.339Z,22.01
2022-10-05T19:50:32.633Z,21.85
2022-10-05T19:53:13.861Z,22.07
2022-10-05T19:55:43.474Z,22.26
2022-10-05T19:58:22.183Z,22.05
2022-10-05T20:01:00.821Z,21.86
2022-10-05T20:03:32.315Z,22.18
2022-10-05T20:06:01.152Z,22.03
2022-10-05T20:08:36.905Z,21.53
2022-10-05T20:11:07.358Z,22.47
2022-10-05T20:13:35.169Z,22.31
2022-10-05T20:16:35.695Z,22.41
2022-10-05T20:19:23.899Z,22.28
2022-10-05T20:21:59.695Z,22.18
2022-10-05T20:24:28.544Z,22.29
2022-10-05T20:27:06.899Z,22.04
2022-10-05T20:29:41.247Z,22.01
2022-10-05T20:32:12.560Z,22.12
2022-10-05T20:34:44.822Z,21.88
2022-10-05T20:37:14.187Z,22.03
2022-10-05T20:39:40.967Z,22.02
2022-10-05T20:42:08.322Z,22.09
2022-10-05T20:44:35.419Z,21.95
2022-10-05T20:47:02.071Z,22.03
2022-10-05T20:49:30.950Z,21.95
2022-10-05T20:51:58.667Z,22.07
2022-10-05T20:54:26.434Z,22.00
2022-10-05T20:56:54.761Z,22.11
2022-10-05T20:59:25.527Z,22.00
2022-10-05T21:01:52.185Z,22.16
2022-10-05T21:04:23.860Z,22.01
2022-10-05T21:06:50.635Z,21.84
2022-10-05T21:09:21.241Z,21.83
2022-10-05T21:11:54.422Z,21.89
2022-10-05T21:14:20.868Z,21.68
2022-10-05T21:16:47.267Z,21.73
2022-10-05T21:19:14.269Z,21.44
2022-10-05T21:21:42.413Z,21.29
2022-10-05T21:24:09.655Z,20.06
2022-10-05T21:26:37.383Z,19.21
2022-10-05T21:29:07.786Z,19.07
2022-10-05T21:31:37.299Z,18.77
2022-10-05T21:34:04.705Z,18.76
2022-10-05T21:36:32.137Z,18.58
2022-10-05T21:38:58.511Z,18.74
2022-10-05T21:41:25.195Z,18.62
2022-10-05T21:43:51.701Z,18.48
2022-10-05T21:46:22.428Z,18.07
2022-10-05T21:48:49.509Z,17.91
2022-10-05T21:51:18.753Z,18.69
2022-10-05T21:53:53.375Z,18.61
2022-10-05T21:56:22.275Z,18.85
2022-10-05T21:58:50.078Z,18.67
2022-10-05T22:01:22.273Z,18.80
2022-10-05T22:03:49.186Z,18.66
2022-10-05T22:06:15.665Z,18.51
2022-10-05T22:08:42.034Z,18.94
2022-10-05T22:11:12.015Z,18.88
2022-10-05T22:13:52.063Z,18.97
2022-10-05T22:16:21.157Z,19.09
2022-10-05T22:18:48.917Z,18.93
2022-10-05T22:21:16.473Z,19.01
2022-10-05T22:23:45.439Z,18.47
2022-10-05T22:26:16.705Z,19.13
2022-10-05T22:28:43.554Z,19.15
2022-10-05T22:31:11.549Z,19.11
2022-10-05T22:33:38.130Z,19.05
2022-10-05T22:36:05.838Z,18.96
2022-10-05T22:38:32.813Z,19.09
2022-10-05T22:40:59.372Z,19.37
2022-10-05T22:43:26.991Z,19.08
2022-10-05T22:45:54.073Z,19.09
2022-10-05T22:48:20.616Z,19.04
2022-10-05T22:50:49.263Z,19.21
2022-10-05T22:53:15.673Z,18.97
2022-10-05T22:55:42.023Z,18.86
2022-10-05T22:58:08.375Z,18.59
2022-10-05T23:00:56.872Z,18.52
2022-10-05T23:03:21.129Z,18.08
2022-10-05T23:05:47.507Z,17.64
2022-10-05T23:08:13.967Z,17.34
2022-10-05T23:10:40.304Z,17.46
2022-10-05T23:13:07.827Z,17.27
2022-10-05T23:15:34.419Z,17.29
2022-10-05T23:18:00.789Z,16.70
2022-10-05T23:20:27.305Z,17.09
2022-10-05T23:22:53.868Z,16.97
2022-10-05T23:25:22.069Z,16.99
2022-10-05T23:27:48.486Z,17.17
2022-10-05T23:30:14.939Z,17.04
2022-10-05T23:32:43.370Z,17.02
2022-10-05T23:35:12.252Z,17.08
2022-10-05T23:37:43.892Z,17.04
2022-10-05T23:40:14.210Z,17.16
2022-10-05T23:42:41.261Z,17.28
2022-10-05T23:45:09.984Z,17.36
2022-10-05T23:47:36.515Z,17.33
2022-10-05T23:50:04.511Z,17.30
2022-10-05T23:52:30.877Z,17.04
2022-10-05T23:54:57.285Z,17.44
2022-10-05T23:57:23.719Z,17.49
2022-10-05T23:59:50.278Z,17.51
